sensor_id;sensor_type;location;lat;lon;timestamp;pressure;altitude;pressure_sealevel;temperature
45393;BMP280;31129;44.810;10.334;2023-10-09T00:01:05;101400.72;;;23.25
45393;BMP280;31129;44.810;10.334;2023-10-09T00:03:39;101403.06;;;23.21
45393;BMP280;31129;44.810;10.334;2023-10-09T00:06:06;101407.16;;;23.20
45393;BMP280;31129;44.810;10.334;2023-10-09T00:08:32;101395.13;;;23.04
45393;BMP280;31129;44.810;10.334;2023-10-09T00:11:01;101398.53;;;23.10
45393;BMP280;31129;44.810;10.334;2023-10-09T00:13:58;101399.28;;;23.11
45393;BMP280;31129;44.810;10.334;2023-10-09T00:16:25;101396.00;;;22.99
45393;BMP280;31129;44.810;10.334;2023-10-09T00:19:11;101408.09;;;23.02
45393;BMP280;31129;44.810;10.334;2023-10-09T00:24:11;101406.59;;;23.01
45393;BMP280;31129;44.810;10.334;2023-10-09T00:26:45;101402.66;;;22.96
45393;BMP280;31129;44.810;10.334;2023-10-09T00:29:15;101402.56;;;22.89
45393;BMP280;31129;44.810;10.334;2023-10-09T00:31:53;101399.13;;;22.96
45393;BMP280;31129;44.810;10.334;2023-10-09T00:34:45;101402.47;;;22.94
45393;BMP280;31129;44.810;10.334;2023-10-09T00:37:16;101403.00;;;22.93
45393;BMP280;31129;44.810;10.334;2023-10-09T00:39:43;101404.41;;;22.86
45393;BMP280;31129;44.810;10.334;2023-10-09T00:42:13;101407.63;;;22.77
45393;BMP280;31129;44.810;10.334;2023-10-09T00:44:40;101397.31;;;22.85
45393;BMP280;31129;44.810;10.334;2023-10-09T00:47:12;101409.00;;;22.84
45393;BMP280;31129;44.810;10.334;2023-10-09T00:50:09;101399.59;;;22.74
45393;BMP280;31129;44.810;10.334;2023-10-09T00:52:57;101395.13;;;22.71
45393;BMP280;31129;44.810;10.334;2023-10-09T00:55:35;101400.78;;;22.65
45393;BMP280;31129;44.810;10.334;2023-10-09T00:58:11;101392.44;;;22.65
45393;BMP280;31129;44.810;10.334;2023-10-09T01:00:40;101389.31;;;22.68
45393;BMP280;31129;44.810;10.334;2023-10-09T01:03:18;101390.31;;;22.58
45393;BMP280;31129;44.810;10.334;2023-10-09T01:05:46;101381.22;;;22.57
45393;BMP280;31129;44.810;10.334;2023-10-09T01:08:21;101384.88;;;22.52
45393;BMP280;31129;44.810;10.334;2023-10-09T01:10:58;101390.75;;;22.62
45393;BMP280;31129;44.810;10.334;2023-10-09T01:13:44;101382.81;;;22.66
45393;BMP280;31129;44.810;10.334;2023-10-09T01:16:14;101386.34;;;22.66
45393;BMP280;31129;44.810;10.334;2023-10-09T01:18:46;101383.75;;;22.68
45393;BMP280;31129;44.810;10.334;2023-10-09T01:21:18;101381.00;;;22.55
45393;BMP280;31129;44.810;10.334;2023-10-09T01:23:48;101378.53;;;22.65
45393;BMP280;31129;44.810;10.334;2023-10-09T01:26:36;101382.81;;;22.66
45393;BMP280;31129;44.810;10.334;2023-10-09T01:29:08;101385.19;;;22.62
45393;BMP280;31129;44.810;10.334;2023-10-09T01:31:46;101388.03;;;22.70
45393;BMP280;31129;44.810;10.334;2023-10-09T01:37:08;101385.41;;;22.64
45393;BMP280;31129;44.810;10.334;2023-10-09T01:39:58;101381.75;;;22.56
45393;BMP280;31129;44.810;10.334;2023-10-09T01:42:25;101380.38;;;22.62
45393;BMP280;31129;44.810;10.334;2023-10-09T01:45:00;101373.09;;;22.59
45393;BMP280;31129;44.810;10.334;2023-10-09T01:47:44;101376.31;;;22.63
45393;BMP280;31129;44.810;10.334;2023-10-09T01:50:30;101368.03;;;22.58
45393;BMP280;31129;44.810;10.334;2023-10-09T01:53:03;101377.25;;;22.53
45393;BMP280;31129;44.810;10.334;2023-10-09T01:55:31;101381.00;;;22.55
45393;BMP280;31129;44.810;10.334;2023-10-09T01:58:08;101378.91;;;22.48
45393;BMP280;31129;44.810;10.334;2023-10-09T02:00:42;101382.75;;;22.45
45393;BMP280;31129;44.810;10.334;2023-10-09T02:03:14;101383.50;;;22.46
45393;BMP280;31129;44.810;10.334;2023-10-09T02:05:43;101383.38;;;22.38
45393;BMP280;31129;44.810;10.334;2023-10-09T02:08:08;101381.25;;;22.44
45393;BMP280;31129;44.810;10.334;2023-10-09T02:10:38;101386.16;;;22.38
45393;BMP280;31129;44.810;10.334;2023-10-09T02:13:13;101390.38;;;22.32
45393;BMP280;31129;44.810;10.334;2023-10-09T02:15:42;101385.97;;;22.36
45393;BMP280;31129;44.810;10.334;2023-10-09T02:18:09;101391.53;;;22.36
45393;BMP280;31129;44.810;10.334;2023-10-09T02:20:51;101386.38;;;22.27
45393;BMP280;31129;44.810;10.334;2023-10-09T02:23:29;101393.03;;;22.24
45393;BMP280;31129;44.810;10.334;2023-10-09T02:26:19;101397.19;;;22.31
45393;BMP280;31129;44.810;10.334;2023-10-09T02:29:15;101391.41;;;22.29
45393;BMP280;31129;44.810;10.334;2023-10-09T02:31:45;101393.66;;;22.30
45393;BMP280;31129;44.810;10.334;2023-10-09T02:34:19;101393.03;;;22.37
45393;BMP280;31129;44.810;10.334;2023-10-09T02:36:50;101397.44;;;22.33
45393;BMP280;31129;44.810;10.334;2023-10-09T02:39:26;101393.56;;;22.36
45393;BMP280;31129;44.810;10.334;2023-10-09T02:41:53;101397.19;;;22.31
45393;BMP280;31129;44.810;10.334;2023-10-09T02:44:23;101396.47;;;22.17
45393;BMP280;31129;44.810;10.334;2023-10-09T02:46:52;101395.25;;;22.12
45393;BMP280;31129;44.810;10.334;2023-10-09T02:49:23;101399.31;;;21.98
45393;BMP280;31129;44.810;10.334;2023-10-09T02:51:49;101391.97;;;22.01
45393;BMP280;31129;44.810;10.334;2023-10-09T02:54:18;101392.16;;;21.90
45393;BMP280;31129;44.810;10.334;2023-10-09T02:56:52;101393.22;;;21.87
45393;BMP280;31129;44.810;10.334;2023-10-09T02:59:23;101391.94;;;21.88
45393;BMP280;31129;44.810;10.334;2023-10-09T03:01:49;101391.19;;;21.87
45393;BMP280;31129;44.810;10.334;2023-10-09T03:04:15;101388.50;;;21.81
45393;BMP280;31129;44.810;10.334;2023-10-09T03:06:41;101386.25;;;21.80
45393;BMP280;31129;44.810;10.334;2023-10-09T03:09:25;101386.66;;;21.84
45393;BMP280;31129;44.810;10.334;2023-10-09T03:11:59;101391.59;;;21.78
45393;BMP280;31129;44.810;10.334;2023-10-09T03:14:33;101387.75;;;21.81
45393;BMP280;31129;44.810;10.334;2023-10-09T03:17:01;101386.78;;;21.78
45393;BMP280;31129;44.810;10.334;2023-10-09T03:19:28;101388.59;;;21.76
45393;BMP280;31129;44.810;10.334;2023-10-09T03:21:54;101385.28;;;21.77
45393;BMP280;31129;44.810;10.334;2023-10-09T03:24:25;101381.72;;;21.64
45393;BMP280;31129;44.810;10.334;2023-10-09T03:26:52;101386.84;;;21.60
45393;BMP280;31129;44.810;10.334;2023-10-09T03:29:21;101383.47;;;21.48
45393;BMP280;31129;44.810;10.334;2023-10-09T03:31:47;101387.72;;;21.55
45393;BMP280;31129;44.810;10.334;2023-10-09T03:34:16;101391.94;;;21.43
45393;BMP280;31129;44.810;10.334;2023-10-09T03:36:42;101389.28;;;21.50
45393;BMP280;31129;44.810;10.334;2023-10-09T03:39:09;101396.09;;;21.49
45393;BMP280;31129;44.810;10.334;2023-10-09T03:42:07;101393.97;;;21.42
45393;BMP280;31129;44.810;10.334;2023-10-09T03:44:38;101393.50;;;21.38
45393;BMP280;31129;44.810;10.334;2023-10-09T03:47:07;101389.28;;;21.31
45393;BMP280;31129;44.810;10.334;2023-10-09T03:49:36;101378.41;;;21.33
45393;BMP280;31129;44.810;10.334;2023-10-09T03:52:04;101387.06;;;21.30
45393;BMP280;31129;44.810;10.334;2023-10-09T03:54:32;101393.13;;;21.47
45393;BMP280;31129;44.810;10.334;2023-10-09T03:57:03;101386.25;;;21.48
45393;BMP280;31129;44.810;10.334;2023-10-09T03:59:28;101378.25;;;21.45
45393;BMP280;31129;44.810;10.334;2023-10-09T04:01:57;101382.78;;;21.29
45393;BMP280;31129;44.810;10.334;2023-10-09T04:04:26;101379.84;;;21.21
45393;BMP280;31129;44.810;10.334;2023-10-09T04:06:53;101380.50;;;21.14
45393;BMP280;31129;44.810;10.334;2023-10-09T04:09:19;101380.50;;;21.14
45393;BMP280;31129;44.810;10.334;2023-10-09T04:14:13;101374.84;;;21.01
45393;BMP280;31129;44.810;10.334;2023-10-09T04:16:49;101371.66;;;20.97
45393;BMP280;31129;44.810;10.334;2023-10-09T04:19:29;101379.34;;;21.04
45393;BMP280;31129;44.810;10.334;2023-10-09T04:22:05;101377.56;;;20.88
45393;BMP280;31129;44.810;10.334;2023-10-09T04:24:33;101379.56;;;20.87
45393;BMP280;31129;44.810;10.334;2023-10-09T04:27:17;101371.34;;;20.82
45393;BMP280;31129;44.810;10.334;2023-10-09T04:29:43;101375.91;;;20.79
45393;BMP280;31129;44.810;10.334;2023-10-09T04:32:15;101379.44;;;20.80
45393;BMP280;31129;44.810;10.334;2023-10-09T04:34:43;101387.28;;;20.76
45393;BMP280;31129;44.810;10.334;2023-10-09T04:37:15;101389.19;;;20.68
45393;BMP280;31129;44.810;10.334;2023-10-09T04:39:41;101391.06;;;20.78
45393;BMP280;31129;44.810;10.334;2023-10-09T04:42:14;101390.66;;;20.50
45393;BMP280;31129;44.810;10.334;2023-10-09T04:44:49;101386.28;;;20.54
45393;BMP280;31129;44.810;10.334;2023-10-09T04:47:36;101381.25;;;20.53
45393;BMP280;31129;44.810;10.334;2023-10-09T04:50:11;101375.06;;;20.23
45393;BMP280;31129;44.810;10.334;2023-10-09T04:52:40;101376.31;;;20.46
45393;BMP280;31129;44.810;10.334;2023-10-09T04:55:07;101377.34;;;20.43
45393;BMP280;31129;44.810;10.334;2023-10-09T04:57:36;101377.56;;;20.45
45393;BMP280;31129;44.810;10.334;2023-10-09T05:00:15;101373.44;;;20.33
45393;BMP280;31129;44.810;10.334;2023-10-09T05:03:08;101373.19;;;20.31
45393;BMP280;31129;44.810;10.334;2023-10-09T05:05:55;101375.09;;;20.41
45393;BMP280;31129;44.810;10.334;2023-10-09T05:08:28;101373.50;;;20.51
45393;BMP280;31129;44.810;10.334;2023-10-09T05:13:26;101372.22;;;20.52
45393;BMP280;31129;44.810;10.334;2023-10-09T05:18:33;101372.50;;;20.49
45393;BMP280;31129;44.810;10.334;2023-10-09T05:21:03;101377.97;;;20.54
45393;BMP280;31129;44.810;10.334;2023-10-09T05:23:38;101376.25;;;20.51
45393;BMP280;31129;44.810;10.334;2023-10-09T05:26:09;101375.03;;;20.47
45393;BMP280;31129;44.810;10.334;2023-10-09T05:28:54;101375.44;;;20.57
45393;BMP280;31129;44.810;10.334;2023-10-09T05:31:26;101377.06;;;20.46
45393;BMP280;31129;44.810;10.334;2023-10-09T05:34:21;101380.56;;;20.47
45393;BMP280;31129;44.810;10.334;2023-10-09T05:36:49;101373.63;;;20.59
45393;BMP280;31129;44.810;10.334;2023-10-09T05:39:14;101376.31;;;20.46
45393;BMP280;31129;44.810;10.334;2023-10-09T05:41:47;101371.97;;;20.50
45393;BMP280;31129;44.810;10.334;2023-10-09T05:44:18;101368.84;;;20.60
45393;BMP280;31129;44.810;10.334;2023-10-09T05:47:07;101376.88;;;20.63
45393;BMP280;31129;44.810;10.334;2023-10-09T05:49:51;101371.78;;;20.67
45393;BMP280;31129;44.810;10.334;2023-10-09T05:52:35;101374.56;;;20.67
45393;BMP280;31129;44.810;10.334;2023-10-09T05:55:04;101376.56;;;20.67
45393;BMP280;31129;44.810;10.334;2023-10-09T05:57:48;101375.50;;;20.70
45393;BMP280;31129;44.810;10.334;2023-10-09T06:00:23;101372.16;;;20.77
45393;BMP280;31129;44.810;10.334;2023-10-09T06:03:08;101380.25;;;20.75
45393;BMP280;31129;44.810;10.334;2023-10-09T06:05:50;101372.66;;;20.75
45393;BMP280;31129;44.810;10.334;2023-10-09T06:08:29;101385.50;;;20.78
45393;BMP280;31129;44.810;10.334;2023-10-09T06:11:08;101381.38;;;20.85
45393;BMP280;31129;44.810;10.334;2023-10-09T06:13:56;101391.94;;;20.86
45393;BMP280;31129;44.810;10.334;2023-10-09T06:16:32;101384.16;;;20.85
45393;BMP280;31129;44.810;10.334;2023-10-09T06:19:08;101387.47;;;20.83
45393;BMP280;31129;44.810;10.334;2023-10-09T06:21:34;101395.56;;;20.81
45393;BMP280;31129;44.810;10.334;2023-10-09T06:24:22;101396.66;;;20.91
45393;BMP280;31129;44.810;10.334;2023-10-09T06:27:21;101399.59;;;20.99
45393;BMP280;31129;44.810;10.334;2023-10-09T06:29:58;101407.34;;;21.06
45393;BMP280;31129;44.810;10.334;2023-10-09T06:32:43;101402.31;;;21.05
45393;BMP280;31129;44.810;10.334;2023-10-09T06:35:34;101403.25;;;20.94
45393;BMP280;31129;44.810;10.334;2023-10-09T06:38:01;101402.53;;;21.07
45393;BMP280;31129;44.810;10.334;2023-10-09T06:40:31;101411.59;;;21.07
45393;BMP280;31129;44.810;10.334;2023-10-09T06:43:03;101409.38;;;21.06
45393;BMP280;31129;44.810;10.334;2023-10-09T06:45:50;101408.56;;;21.11
45393;BMP280;31129;44.810;10.334;2023-10-09T06:48:44;101406.13;;;21.20
45393;BMP280;31129;44.810;10.334;2023-10-09T06:51:21;101399.00;;;21.25
45393;BMP280;31129;44.810;10.334;2023-10-09T06:53:53;101402.16;;;21.34
45393;BMP280;31129;44.810;10.334;2023-10-09T06:56:19;101398.44;;;21.45
45393;BMP280;31129;44.810;10.334;2023-10-09T06:58:54;101403.69;;;21.49
45393;BMP280;31129;44.810;10.334;2023-10-09T07:01:21;101413.72;;;21.52
45393;BMP280;31129;44.810;10.334;2023-10-09T07:03:56;101422.81;;;21.52
45393;BMP280;31129;44.810;10.334;2023-10-09T07:06:40;101423.94;;;21.62
45393;BMP280;31129;44.810;10.334;2023-10-09T07:09:05;101417.78;;;21.69
45393;BMP280;31129;44.810;10.334;2023-10-09T07:11:41;101413.59;;;21.76
45393;BMP280;31129;44.810;10.334;2023-10-09T07:14:20;101408.84;;;21.90
45393;BMP280;31129;44.810;10.334;2023-10-09T07:17:03;101418.34;;;21.94
45393;BMP280;31129;44.810;10.334;2023-10-09T07:19:51;101413.97;;;21.99
45393;BMP280;31129;44.810;10.334;2023-10-09T07:22:22;101412.38;;;22.03
45393;BMP280;31129;44.810;10.334;2023-10-09T07:24:56;101416.97;;;22.14
45393;BMP280;31129;44.810;10.334;2023-10-09T07:27:28;101411.97;;;22.26
45393;BMP280;31129;44.810;10.334;2023-10-09T07:30:16;101409.38;;;22.28
45393;BMP280;31129;44.810;10.334;2023-10-09T07:32:55;101415.81;;;22.36
45393;BMP280;31129;44.810;10.334;2023-10-09T07:35:21;101418.28;;;22.39
45393;BMP280;31129;44.810;10.334;2023-10-09T07:38:05;101412.28;;;22.48
45393;BMP280;31129;44.810;10.334;2023-10-09T07:40:35;101417.63;;;22.59
45393;BMP280;31129;44.810;10.334;2023-10-09T07:43:18;101416.44;;;22.68
45393;BMP280;31129;44.810;10.334;2023-10-09T07:45:43;101407.94;;;22.74
45393;BMP280;31129;44.810;10.334;2023-10-09T07:48:26;101414.78;;;22.86
45393;BMP280;31129;44.810;10.334;2023-10-09T07:50:52;101413.16;;;22.90
45393;BMP280;31129;44.810;10.334;2023-10-09T07:53:23;101419.25;;;23.02
45393;BMP280;31129;44.810;10.334;2023-10-09T07:55:52;101413.75;;;23.09
45393;BMP280;31129;44.810;10.334;2023-10-09T07:58:24;101417.34;;;23.18
45393;BMP280;31129;44.810;10.334;2023-10-09T08:00:54;101417.09;;;23.29
45393;BMP280;31129;44.810;10.334;2023-10-09T08:03:35;101418.78;;;23.32
45393;BMP280;31129;44.810;10.334;2023-10-09T08:06:02;101429.63;;;23.35
45393;BMP280;31129;44.810;10.334;2023-10-09T08:08:46;101418.03;;;23.52
45393;BMP280;31129;44.810;10.334;2023-10-09T08:11:34;101412.16;;;23.56
45393;BMP280;31129;44.810;10.334;2023-10-09T08:14:09;101412.00;;;23.61
45393;BMP280;31129;44.810;10.334;2023-10-09T08:16:54;101421.66;;;23.60
45393;BMP280;31129;44.810;10.334;2023-10-09T08:19:47;101421.84;;;23.62
45393;BMP280;31129;44.810;10.334;2023-10-09T08:25:15;101420.97;;;23.67
45393;BMP280;31129;44.810;10.334;2023-10-09T08:28:02;101418.44;;;23.77
45393;BMP280;31129;44.810;10.334;2023-10-09T08:30:43;101415.47;;;23.75
45393;BMP280;31129;44.810;10.334;2023-10-09T08:33:20;101415.94;;;23.86
45393;BMP280;31129;44.810;10.334;2023-10-09T08:35:55;101411.13;;;23.94
45393;BMP280;31129;44.810;10.334;2023-10-09T08:38:27;101416.97;;;24.04
45393;BMP280;31129;44.810;10.334;2023-10-09T08:41:06;101419.41;;;24.08
45393;BMP280;31129;44.810;10.334;2023-10-09T08:43:52;101414.94;;;24.12
45393;BMP280;31129;44.810;10.334;2023-10-09T08:46:26;101404.78;;;24.22
45393;BMP280;31129;44.810;10.334;2023-10-09T08:48:56;101407.41;;;24.28
45393;BMP280;31129;44.810;10.334;2023-10-09T08:51:23;101410.09;;;24.41
45393;BMP280;31129;44.810;10.334;2023-10-09T08:53:52;101417.75;;;24.48
45393;BMP280;31129;44.810;10.334;2023-10-09T08:56:19;101403.28;;;24.57
45393;BMP280;31129;44.810;10.334;2023-10-09T08:58:53;101410.59;;;24.68
45393;BMP280;31129;44.810;10.334;2023-10-09T09:01:20;101399.97;;;24.74
45393;BMP280;31129;44.810;10.334;2023-10-09T09:03:46;101400.38;;;24.78
45393;BMP280;31129;44.810;10.334;2023-10-09T09:06:17;101398.53;;;24.88
45393;BMP280;31129;44.810;10.334;2023-10-09T09:08:47;101392.22;;;24.95
45393;BMP280;31129;44.810;10.334;2023-10-09T09:11:16;101399.28;;;24.96
45393;BMP280;31129;44.810;10.334;2023-10-09T09:14:00;101393.34;;;25.07
45393;BMP280;31129;44.810;10.334;2023-10-09T09:16:40;101390.19;;;25.18
45393;BMP280;31129;44.810;10.334;2023-10-09T09:19:09;101394.69;;;25.29
45393;BMP280;31129;44.810;10.334;2023-10-09T09:21:39;101387.78;;;25.38
45393;BMP280;31129;44.810;10.334;2023-10-09T09:24:11;101379.59;;;25.40
45393;BMP280;31129;44.810;10.334;2023-10-09T09:26:46;101377.34;;;25.53
45393;BMP280;31129;44.810;10.334;2023-10-09T09:29:14;101378.06;;;25.61
45393;BMP280;31129;44.810;10.334;2023-10-09T09:31:56;101375.09;;;25.67
45393;BMP280;31129;44.810;10.334;2023-10-09T09:34:23;101374.66;;;25.78
45393;BMP280;31129;44.810;10.334;2023-10-09T09:36:58;101368.91;;;25.84
45393;BMP280;31129;44.810;10.334;2023-10-09T09:39:27;101373.00;;;25.83
45393;BMP280;31129;44.810;10.334;2023-10-09T09:42:00;101363.59;;;26.03
45393;BMP280;31129;44.810;10.334;2023-10-09T09:44:33;101352.19;;;26.08
45393;BMP280;31129;44.810;10.334;2023-10-09T09:47:11;101358.69;;;26.11
45393;BMP280;31129;44.810;10.334;2023-10-09T09:49:41;101348.25;;;26.19
45393;BMP280;31129;44.810;10.334;2023-10-09T09:52:08;101350.81;;;26.24
45393;BMP280;31129;44.810;10.334;2023-10-09T09:54:38;101345.53;;;26.36
45393;BMP280;31129;44.810;10.334;2023-10-09T09:57:07;101344.47;;;26.56
45393;BMP280;31129;44.810;10.334;2023-10-09T09:59:38;101346.72;;;26.58
45393;BMP280;31129;44.810;10.334;2023-10-09T10:02:20;101351.94;;;26.61
45393;BMP280;31129;44.810;10.334;2023-10-09T10:04:52;101353.13;;;26.76
45393;BMP280;31129;44.810;10.334;2023-10-09T10:07:19;101338.66;;;26.87
45393;BMP280;31129;44.810;10.334;2023-10-09T10:09:46;101341.19;;;27.00
45393;BMP280;31129;44.810;10.334;2023-10-09T10:12:14;101336.13;;;26.98
45393;BMP280;31129;44.810;10.334;2023-10-09T10:14:56;101347.47;;;27.08
45393;BMP280;31129;44.810;10.334;2023-10-09T10:17:24;101328.44;;;27.06
45393;BMP280;31129;44.810;10.334;2023-10-09T10:20:05;101338.38;;;27.17
45393;BMP280;31129;44.810;10.334;2023-10-09T10:22:47;101335.88;;;27.29
45393;BMP280;31129;44.810;10.334;2023-10-09T10:28:23;101338.28;;;27.49
45393;BMP280;31129;44.810;10.334;2023-10-09T10:31:08;101329.13;;;27.49
45393;BMP280;31129;44.810;10.334;2023-10-09T10:36:20;101332.91;;;27.61
45393;BMP280;31129;44.810;10.334;2023-10-09T10:39:07;101328.63;;;27.60
45393;BMP280;31129;44.810;10.334;2023-10-09T10:41:37;101324.56;;;27.71
45393;BMP280;31129;44.810;10.334;2023-10-09T10:44:26;101320.88;;;27.68
45393;BMP280;31129;44.810;10.334;2023-10-09T10:47:05;101310.72;;;27.73
45393;BMP280;31129;44.810;10.334;2023-10-09T10:49:43;101304.09;;;27.78
45393;BMP280;31129;44.810;10.334;2023-10-09T10:52:20;101302.22;;;27.80
45393;BMP280;31129;44.810;10.334;2023-10-09T10:54:45;101300.03;;;27.88
45393;BMP280;31129;44.810;10.334;2023-10-09T10:57:18;101294.25;;;27.86
45393;BMP280;31129;44.810;10.334;2023-10-09T11:00:19;101292.28;;;27.96
45393;BMP280;31129;44.810;10.334;2023-10-09T11:03:04;101282.41;;;28.05
45393;BMP280;31129;44.810;10.334;2023-10-09T11:05:42;101276.03;;;28.04
45393;BMP280;31129;44.810;10.334;2023-10-09T11:08:11;101266.22;;;28.23
45393;BMP280;31129;44.810;10.334;2023-10-09T11:10:38;101264.50;;;28.27
45393;BMP280;31129;44.810;10.334;2023-10-09T11:13:25;101261.59;;;28.44
45393;BMP280;31129;44.810;10.334;2023-10-09T11:15:58;101256.84;;;28.47
45393;BMP280;31129;44.810;10.334;2023-10-09T11:18:41;101252.16;;;28.49
45393;BMP280;31129;44.810;10.334;2023-10-09T11:21:14;101246.41;;;28.57
45393;BMP280;31129;44.810;10.334;2023-10-09T11:23:41;101244.34;;;28.57
45393;BMP280;31129;44.810;10.334;2023-10-09T11:26:16;101254.56;;;28.72
45393;BMP280;31129;44.810;10.334;2023-10-09T11:29:14;101240.06;;;28.76
45393;BMP280;31129;44.810;10.334;2023-10-09T11:32:02;101239.63;;;28.79
45393;BMP280;31129;44.810;10.334;2023-10-09T11:34:33;101227.06;;;28.90
45393;BMP280;31129;44.810;10.334;2023-10-09T11:37:14;101221.59;;;29.11
45393;BMP280;31129;44.810;10.334;2023-10-09T11:39:56;101219.81;;;29.16
45393;BMP280;31129;44.810;10.334;2023-10-09T11:42:22;101212.56;;;29.22
45393;BMP280;31129;44.810;10.334;2023-10-09T11:45:25;101215.50;;;29.24
45393;BMP280;31129;44.810;10.334;2023-10-09T11:47:54;101214.00;;;29.42
45393;BMP280;31129;44.810;10.334;2023-10-09T11:50:43;101218.16;;;29.41
45393;BMP280;31129;44.810;10.334;2023-10-09T11:53:10;101210.16;;;29.47
45393;BMP280;31129;44.810;10.334;2023-10-09T11:55:48;101206.13;;;29.50
45393;BMP280;31129;44.810;10.334;2023-10-09T11:58:17;101208.00;;;29.77
45393;BMP280;31129;44.810;10.334;2023-10-09T12:00:55;101197.78;;;29.72
45393;BMP280;31129;44.810;10.334;2023-10-09T12:03:25;101200.91;;;29.66
45393;BMP280;31129;44.810;10.334;2023-10-09T12:05:58;101195.69;;;29.82
45393;BMP280;31129;44.810;10.334;2023-10-09T12:08:24;101189.03;;;29.77
45393;BMP280;31129;44.810;10.334;2023-10-09T12:10:55;101184.81;;;29.88
45393;BMP280;31129;44.810;10.334;2023-10-09T12:13:22;101177.75;;;30.08
45393;BMP280;31129;44.810;10.334;2023-10-09T12:15:51;101178.31;;;30.16
45393;BMP280;31129;44.810;10.334;2023-10-09T12:18:23;101160.91;;;30.20
45393;BMP280;31129;44.810;10.334;2023-10-09T12:20:52;101158.19;;;30.31
45393;BMP280;31129;44.810;10.334;2023-10-09T12:23:21;101163.03;;;30.40
45393;BMP280;31129;44.810;10.334;2023-10-09T12:25:50;101159.84;;;30.46
45393;BMP280;31129;44.810;10.334;2023-10-09T12:28:16;101152.94;;;30.58
45393;BMP280;31129;44.810;10.334;2023-10-09T12:30:47;101142.78;;;30.65
45393;BMP280;31129;44.810;10.334;2023-10-09T12:33:17;101145.09;;;30.57
45393;BMP280;31129;44.810;10.334;2023-10-09T12:35:43;101148.59;;;30.79
45393;BMP280;31129;44.810;10.334;2023-10-09T12:38:13;101145.47;;;30.96
45393;BMP280;31129;44.810;10.334;2023-10-09T12:40:44;101143.53;;;30.98
45393;BMP280;31129;44.810;10.334;2023-10-09T12:43:19;101135.34;;;31.14
45393;BMP280;31129;44.810;10.334;2023-10-09T12:45:45;101135.69;;;31.08
45393;BMP280;31129;44.810;10.334;2023-10-09T12:48:11;101132.72;;;31.06
45393;BMP280;31129;44.810;10.334;2023-10-09T12:50:38;101125.84;;;30.98
45393;BMP280;31129;44.810;10.334;2023-10-09T12:53:08;101134.47;;;31.11
45393;BMP280;31129;44.810;10.334;2023-10-09T12:55:37;101120.63;;;31.16
45393;BMP280;31129;44.810;10.334;2023-10-09T12:58:07;101120.41;;;31.46
45393;BMP280;31129;44.810;10.334;2023-10-09T13:00:36;101115.44;;;31.58
45393;BMP280;31129;44.810;10.334;2023-10-09T13:03:06;101115.50;;;31.47
45393;BMP280;31129;44.810;10.334;2023-10-09T13:08:30;101116.59;;;31.77
45393;BMP280;31129;44.810;10.334;2023-10-09T13:11:03;101105.00;;;31.84
45393;BMP280;31129;44.810;10.334;2023-10-09T13:13:43;101105.75;;;31.73
45393;BMP280;31129;44.810;10.334;2023-10-09T13:16:11;101101.09;;;31.78
45393;BMP280;31129;44.810;10.334;2023-10-09T13:18:41;101100.41;;;32.02
45393;BMP280;31129;44.810;10.334;2023-10-09T13:21:24;101102.16;;;31.96
45393;BMP280;31129;44.810;10.334;2023-10-09T13:23:57;101089.47;;;32.08
45393;BMP280;31129;44.810;10.334;2023-10-09T13:26:25;101088.63;;;32.06
45393;BMP280;31129;44.810;10.334;2023-10-09T13:28:56;101086.06;;;31.98
45393;BMP280;31129;44.810;10.334;2023-10-09T13:31:23;101085.41;;;32.11
45393;BMP280;31129;44.810;10.334;2023-10-09T13:33:52;101078.38;;;32.12
45393;BMP280;31129;44.810;10.334;2023-10-09T13:36:25;101078.34;;;32.24
45393;BMP280;31129;44.810;10.334;2023-10-09T13:39:08;101065.75;;;32.39
45393;BMP280;31129;44.810;10.334;2023-10-09T13:41:52;101064.91;;;32.36
45393;BMP280;31129;44.810;10.334;2023-10-09T13:44:33;101065.16;;;32.29
45393;BMP280;31129;44.810;10.334;2023-10-09T13:47:01;101049.78;;;32.32
45393;BMP280;31129;44.810;10.334;2023-10-09T13:49:28;101053.34;;;32.32
45393;BMP280;31129;44.810;10.334;2023-10-09T13:52:01;101043.66;;;32.35
45393;BMP280;31129;44.810;10.334;2023-10-09T13:54:27;101046.75;;;32.53
45393;BMP280;31129;44.810;10.334;2023-10-09T13:57:03;101046.47;;;32.74
45393;BMP280;31129;44.810;10.334;2023-10-09T13:59:34;101056.75;;;32.67
45393;BMP280;31129;44.810;10.334;2023-10-09T14:02:08;101047.84;;;32.87
45393;BMP280;31129;44.810;10.334;2023-10-09T14:04:42;101038.75;;;32.88
45393;BMP280;31129;44.810;10.334;2023-10-09T14:07:09;101034.88;;;32.82
45393;BMP280;31129;44.810;10.334;2023-10-09T14:09:35;101037.19;;;32.99
45393;BMP280;31129;44.810;10.334;2023-10-09T14:12:05;101043.59;;;33.13
45393;BMP280;31129;44.810;10.334;2023-10-09T14:14:35;101037.50;;;33.18
45393;BMP280;31129;44.810;10.334;2023-10-09T14:17:09;101034.75;;;33.20
45393;BMP280;31129;44.810;10.334;2023-10-09T14:19:40;101026.09;;;33.30
45393;BMP280;31129;44.810;10.334;2023-10-09T14:22:25;101024.38;;;33.39
45393;BMP280;31129;44.810;10.334;2023-10-09T14:24:52;101026.69;;;33.15
45393;BMP280;31129;44.810;10.334;2023-10-09T14:27:25;101026.09;;;33.30
45393;BMP280;31129;44.810;10.334;2023-10-09T14:29:53;101015.03;;;33.22
45393;BMP280;31129;44.810;10.334;2023-10-09T14:32:24;101027.53;;;33.31
45393;BMP280;31129;44.810;10.334;2023-10-09T14:35:03;101023.75;;;33.40
45393;BMP280;31129;44.810;10.334;2023-10-09T14:37:41;101020.19;;;33.40
45393;BMP280;31129;44.810;10.334;2023-10-09T14:40:10;101018.09;;;33.40
45393;BMP280;31129;44.810;10.334;2023-10-09T14:45:45;101017.78;;;32.93
45393;BMP280;31129;44.810;10.334;2023-10-09T14:48:17;101002.06;;;32.90
45393;BMP280;31129;44.810;10.334;2023-10-09T14:50:54;101014.94;;;33.07